createdAt,value
2018-06-02T00:02:28.502Z,39.90
2018-06-02T00:04:57.476Z,43.17
2018-06-02T00:07:26.903Z,42.63
2018-06-02T00:09:56.424Z,43.80
2018-06-02T00:12:26.243Z,45.23
2018-06-02T00:14:55.721Z,46.67
2018-06-02T00:17:26.039Z,46.70
2018-06-02T00:19:55.272Z,46.40
2018-06-02T00:22:24.503Z,44.70
2018-06-02T00:24:53.649Z,44.00
2018-06-02T00:27:22.803Z,45.87
2018-06-02T00:29:58.699Z,46.23
2018-06-02T00:32:28.237Z,48.07
2018-06-02T00:34:57.640Z,46.33
2018-06-02T00:37:26.689Z,49.47
2018-06-02T00:39:55.666Z,53.00
2018-06-02T00:42:24.683Z,50.77
2018-06-02T00:44:53.608Z,48.40
2018-06-02T00:47:22.459Z,50.57
2018-06-02T00:49:51.268Z,50.20
2018-06-02T00:52:20.225Z,51.93
2018-06-02T00:55:20.021Z,48.33
2018-06-02T00:57:49.268Z,49.97
2018-06-02T01:00:18.545Z,48.30
2018-06-02T01:02:48.084Z,47.70
2018-06-02T01:05:17.430Z,47.47
2018-06-02T01:07:47.003Z,51.87
2018-06-02T01:10:16.336Z,46.53
2018-06-02T01:12:45.592Z,44.13
2018-06-02T01:15:15.006Z,47.00
2018-06-02T01:17:44.002Z,49.07
2018-06-02T01:20:12.925Z,46.13
2018-06-02T01:22:41.896Z,46.43
2018-06-02T01:25:10.867Z,44.87
2018-06-02T01:27:39.855Z,45.87
2018-06-02T01:30:08.828Z,49.10
2018-06-02T01:32:37.747Z,52.27
2018-06-02T01:35:06.832Z,48.03
2018-06-02T01:37:36.161Z,47.97
2018-06-02T01:40:05.471Z,48.90
2018-06-02T01:42:34.747Z,47.37
2018-06-02T01:45:04.242Z,47.07
2018-06-02T01:47:33.664Z,45.73
2018-06-02T01:50:03.286Z,45.87
2018-06-02T01:52:32.681Z,46.70
2018-06-02T01:55:01.751Z,47.03
2018-06-02T01:57:31.083Z,47.80
2018-06-02T02:00:00.393Z,49.10
2018-06-02T02:02:29.825Z,50.87
2018-06-02T02:04:59.195Z,52.07
2018-06-02T02:07:28.569Z,51.20
2018-06-02T02:09:57.854Z,58.27
2018-06-02T02:12:27.242Z,54.57
2018-06-02T02:14:56.720Z,53.93
2018-06-02T02:17:25.937Z,51.37
2018-06-02T02:19:55.259Z,49.80
2018-06-02T02:22:24.486Z,52.20
2018-06-02T02:24:53.763Z,51.33
2018-06-02T02:27:22.703Z,48.90
2018-06-02T02:29:51.654Z,52.10
2018-06-02T02:32:21.258Z,54.90
2018-06-02T02:34:50.625Z,55.20
2018-06-02T02:37:19.869Z,58.90
2018-06-02T02:39:49.149Z,54.57
2018-06-02T02:42:24.973Z,55.30
2018-06-02T02:44:54.375Z,55.00
2018-06-02T02:47:23.246Z,51.10
2018-06-02T02:49:52.085Z,52.43
2018-06-02T02:52:21.061Z,49.93
2018-06-02T02:54:49.957Z,47.70
2018-06-02T02:57:18.894Z,49.73
2018-06-02T02:59:47.780Z,48.90
2018-06-02T03:02:16.764Z,48.47
2018-06-02T03:04:45.759Z,49.90
2018-06-02T03:07:14.954Z,50.67
2018-06-02T03:09:44.258Z,51.30
2018-06-02T03:12:14.372Z,49.30
2018-06-02T03:14:43.720Z,50.33
2018-06-02T03:17:12.637Z,50.87
2018-06-02T03:19:42.000Z,48.67
2018-06-02T03:22:11.185Z,51.20
2018-06-02T03:24:40.436Z,52.60
2018-06-02T03:27:09.345Z,54.27
2018-06-02T03:29:38.763Z,56.67
2018-06-02T03:32:08.243Z,53.10
2018-06-02T03:34:37.821Z,53.60
2018-06-02T03:37:07.372Z,54.93
2018-06-02T03:39:36.621Z,53.97
2018-06-02T03:42:06.067Z,53.70
2018-06-02T03:44:35.365Z,52.97
2018-06-02T03:47:04.591Z,52.30
2018-06-02T03:49:33.993Z,53.73
2018-06-02T03:52:03.262Z,52.20
2018-06-02T03:54:32.461Z,50.70
2018-06-02T03:57:02.185Z,52.03
2018-06-02T03:59:31.473Z,52.70
2018-06-02T04:04:55.727Z,47.00
2018-06-02T04:07:24.592Z,48.93
2018-06-02T04:09:53.274Z,48.80
2018-06-02T04:12:21.969Z,50.87
2018-06-02T04:14:50.652Z,49.17
2018-06-02T04:17:19.571Z,48.67
2018-06-02T04:19:48.478Z,45.77
2018-06-02T04:22:17.110Z,48.50
2018-06-02T04:24:45.872Z,49.43
2018-06-02T04:27:14.458Z,47.57
2018-06-02T04:29:43.733Z,46.03
2018-06-02T04:32:12.692Z,47.57
2018-06-02T04:34:42.420Z,47.00
2018-06-02T04:37:11.377Z,45.37
2018-06-02T04:39:40.117Z,45.90
2018-06-02T04:42:08.789Z,47.60
2018-06-02T04:44:37.547Z,44.67
2018-06-02T04:47:06.155Z,45.60
2018-06-02T04:49:34.941Z,47.67
2018-06-02T04:52:03.792Z,46.60
2018-06-02T04:54:32.614Z,45.40
2018-06-02T04:57:01.116Z,46.63
2018-06-02T04:59:29.527Z,44.90
2018-06-02T05:01:58.042Z,44.03
2018-06-02T05:04:26.935Z,43.40
2018-06-02T05:06:55.636Z,44.37
2018-06-02T05:09:24.255Z,44.30
2018-06-02T05:11:52.971Z,45.70
2018-06-02T05:14:21.426Z,43.63
2018-06-02T05:16:49.919Z,42.97
2018-06-02T05:19:18.500Z,42.37
2018-06-02T05:21:47.166Z,44.43
2018-06-02T05:24:15.722Z,43.47
2018-06-02T05:26:44.295Z,43.20
2018-06-02T05:29:12.920Z,44.73
2018-06-02T05:31:41.824Z,43.67
2018-06-02T05:34:10.504Z,43.93
2018-06-02T05:36:39.557Z,43.30
2018-06-02T05:39:08.243Z,42.70
2018-06-02T05:41:36.789Z,43.60
2018-06-02T05:44:05.547Z,42.00
2018-06-02T05:46:34.258Z,43.50
2018-06-02T05:49:03.359Z,44.40
2018-06-02T05:51:32.308Z,42.20
2018-06-02T05:54:01.131Z,41.93
2018-06-02T05:56:29.857Z,39.37
2018-06-02T05:58:59.015Z,41.80
2018-06-02T06:01:27.958Z,38.20
2018-06-02T06:03:56.651Z,39.23
2018-06-02T06:06:25.317Z,40.70
2018-06-02T06:08:54.165Z,41.13
2018-06-02T06:11:22.827Z,39.50
2018-06-02T06:13:51.631Z,39.20
2018-06-02T06:16:20.325Z,39.70
2018-06-02T06:18:49.442Z,39.80
2018-06-02T06:21:18.127Z,38.80
2018-06-02T06:23:47.409Z,36.67
2018-06-02T06:26:16.755Z,35.77
2018-06-02T06:28:45.341Z,36.80
2018-06-02T06:31:15.447Z,36.10
2018-06-02T06:33:44.793Z,33.50
2018-06-02T06:36:13.851Z,36.93
2018-06-02T06:38:43.082Z,33.40
2018-06-02T06:41:11.823Z,36.70
2018-06-02T06:43:40.574Z,33.63
2018-06-02T06:46:09.119Z,36.20
2018-06-02T06:48:38.203Z,36.00
2018-06-02T06:51:07.090Z,35.60
2018-06-02T06:53:36.295Z,36.50
2018-06-02T06:56:04.923Z,34.53
2018-06-02T06:58:33.749Z,34.27
2018-06-02T07:01:02.278Z,35.20
2018-06-02T07:03:30.960Z,36.37
2018-06-02T07:06:00.433Z,39.17
2018-06-02T07:08:29.771Z,34.33
2018-06-02T07:10:58.579Z,33.87
2018-06-02T07:13:27.252Z,33.87
2018-06-02T07:15:55.944Z,36.40
2018-06-02T07:18:24.765Z,35.83
2018-06-02T07:20:53.679Z,35.70
2018-06-02T07:23:22.727Z,33.67
2018-06-02T07:25:51.323Z,35.03
2018-06-02T07:28:20.476Z,34.07
2018-06-02T07:30:49.631Z,36.23
2018-06-02T07:33:18.344Z,35.20
2018-06-02T07:35:47.367Z,34.20
2018-06-02T07:38:16.043Z,35.70
2018-06-02T07:40:44.807Z,35.10
2018-06-02T07:43:13.642Z,34.27
2018-06-02T07:45:43.072Z,35.00
2018-06-02T07:48:12.326Z,35.33
2018-06-02T07:50:41.523Z,32.53
2018-06-02T07:53:10.438Z,35.00
2018-06-02T07:55:38.932Z,35.40
2018-06-02T07:58:07.638Z,34.33
2018-06-02T08:00:36.536Z,34.57
2018-06-02T08:03:05.291Z,33.37
2018-06-02T08:05:34.350Z,32.57
2018-06-02T08:08:04.527Z,33.00
2018-06-02T08:10:35.182Z,36.70
2018-06-02T08:13:04.306Z,34.33
2018-06-02T08:15:33.696Z,33.13
2018-06-02T08:18:03.077Z,34.67
2018-06-02T08:20:32.277Z,31.20
2018-06-02T08:23:03.473Z,32.30
2018-06-02T08:25:33.842Z,34.07
2018-06-02T08:28:02.970Z,35.00
2018-06-02T08:30:35.081Z,34.80
2018-06-02T08:33:05.240Z,38.23
2018-06-02T08:35:35.572Z,34.73
2018-06-02T08:38:04.612Z,38.07
2018-06-02T08:40:36.306Z,39.37
2018-06-02T08:43:05.681Z,36.87
2018-06-02T08:45:37.611Z,34.07
2018-06-02T08:48:08.863Z,35.43
2018-06-02T08:50:39.351Z,35.73
2018-06-02T08:53:09.894Z,34.43
2018-06-02T08:55:38.984Z,36.73
2018-06-02T08:58:08.775Z,34.57
2018-06-02T09:00:37.557Z,34.30
2018-06-02T09:03:06.833Z,31.40
2018-06-02T09:05:36.370Z,29.53
2018-06-02T09:08:05.040Z,32.03
2018-06-02T09:10:34.158Z,33.10
2018-06-02T09:13:02.947Z,35.00
2018-06-02T09:15:31.746Z,36.40
2018-06-02T09:18:00.335Z,41.33
2018-06-02T09:20:29.846Z,41.17
2018-06-02T09:22:58.413Z,40.80
2018-06-02T09:25:27.311Z,42.07
2018-06-02T09:27:56.015Z,40.57
2018-06-02T09:30:25.283Z,41.60
2018-06-02T09:32:53.928Z,43.93
2018-06-02T09:35:24.227Z,40.90
2018-06-02T09:37:55.956Z,42.17
2018-06-02T09:40:25.315Z,40.83
2018-06-02T09:42:54.181Z,41.37
2018-06-02T09:45:23.634Z,41.80
2018-06-02T09:47:53.613Z,41.93
2018-06-02T09:50:22.899Z,41.13
2018-06-02T09:52:52.523Z,39.90
2018-06-02T09:55:21.523Z,40.73
2018-06-02T09:57:51.692Z,39.83
2018-06-02T10:00:24.991Z,37.33
2018-06-02T10:02:54.498Z,34.77
2018-06-02T10:05:23.229Z,36.33
2018-06-02T10:07:52.226Z,37.20
2018-06-02T10:13:03.590Z,36.90
2018-06-02T10:15:32.130Z,33.90
2018-06-02T10:18:01.446Z,36.70
2018-06-02T10:20:30.577Z,34.87
2018-06-02T10:22:59.059Z,35.57
2018-06-02T10:25:28.290Z,32.57
2018-06-02T10:27:56.939Z,31.90
2018-06-02T10:30:25.905Z,31.67
2018-06-02T10:32:54.455Z,30.50
2018-06-02T10:35:23.256Z,31.60
2018-06-02T10:37:52.432Z,36.80
2018-06-02T10:40:21.391Z,34.00
2018-06-02T10:42:49.977Z,32.67
2018-06-02T10:45:18.896Z,32.70
2018-06-02T10:47:47.719Z,34.17
2018-06-02T10:50:17.404Z,33.97
2018-06-02T10:52:46.448Z,30.40
2018-06-02T10:55:15.791Z,32.70
2018-06-02T10:57:44.274Z,30.27
2018-06-02T11:00:32.902Z,30.73
2018-06-02T11:03:01.727Z,31.43
2018-06-02T11:05:30.365Z,34.60
2018-06-02T11:08:01.115Z,34.40
2018-06-02T11:10:30.431Z,30.53
2018-06-02T11:13:01.390Z,28.60
2018-06-02T11:15:30.436Z,30.97
2018-06-02T11:18:01.178Z,28.80
2018-06-02T11:20:31.978Z,28.50
2018-06-02T11:23:00.876Z,28.73
2018-06-02T11:25:30.756Z,27.10
